createdAt,value
2022-08-16T00:02:24.172Z,1.90
2022-08-16T00:04:51.101Z,2.20
2022-08-16T00:07:17.987Z,2.00
2022-08-16T00:09:45.303Z,1.83
2022-08-16T00:12:12.420Z,2.07
2022-08-16T00:14:45.317Z,1.77
2022-08-16T00:17:18.440Z,2.07
2022-08-16T00:19:46.970Z,2.00
2022-08-16T00:22:15.840Z,1.90
2022-08-16T00:24:44.894Z,1.60
2022-08-16T00:27:14.390Z,2.00
2022-08-16T00:29:41.451Z,1.90
2022-08-16T00:32:10.946Z,1.77
2022-08-16T00:34:52.341Z,1.60
2022-08-16T00:37:56.277Z,2.07
2022-08-16T00:40:34.909Z,1.87
2022-08-16T00:43:05.050Z,1.87
2022-08-16T00:45:57.893Z,2.10
2022-08-16T00:48:31.270Z,1.90
2022-08-16T00:50:59.860Z,2.00
2022-08-16T00:53:26.806Z,1.67
2022-08-16T00:56:00.431Z,1.90
2022-08-16T00:58:34.869Z,1.63
2022-08-16T01:01:03.174Z,1.90
2022-08-16T01:03:35.831Z,1.97
2022-08-16T01:06:39.583Z,1.90
2022-08-16T01:08:54.833Z,2.00
2022-08-16T01:11:23.544Z,1.97
2022-08-16T01:13:56.684Z,2.13
2022-08-16T01:16:26.644Z,2.30
2022-08-16T01:19:02.614Z,2.40
2022-08-16T01:21:40.858Z,2.20
2022-08-16T01:24:52.890Z,1.80
2022-08-16T01:27:47.992Z,2.33
2022-08-16T01:30:26.100Z,1.90
2022-08-16T01:33:02.616Z,1.70
2022-08-16T01:36:02.573Z,2.03
2022-08-16T01:38:46.964Z,2.17
2022-08-16T01:41:23.854Z,2.17
2022-08-16T01:43:54.095Z,1.70
2022-08-16T01:46:39.278Z,2.17
2022-08-16T01:49:21.521Z,1.90
2022-08-16T01:51:57.180Z,2.20
2022-08-16T01:54:30.614Z,1.90
2022-08-16T01:56:58.317Z,2.03
2022-08-16T01:59:25.276Z,2.43
2022-08-16T02:02:00.155Z,2.40
2022-08-16T02:04:48.363Z,2.10
2022-08-16T02:07:18.226Z,1.93
2022-08-16T02:09:58.626Z,2.30
2022-08-16T02:12:49.590Z,2.33
2022-08-16T02:15:16.274Z,2.27
2022-08-16T02:17:43.508Z,2.20
2022-08-16T02:20:12.058Z,1.97
2022-08-16T02:22:38.833Z,1.97
2022-08-16T02:25:10.355Z,1.87
2022-08-16T02:27:38.699Z,2.23
2022-08-16T02:30:07.903Z,2.10
2022-08-16T02:32:50.904Z,2.33
2022-08-16T02:35:22.942Z,2.47
2022-08-16T02:37:52.607Z,2.00
2022-08-16T02:40:22.243Z,2.00
2022-08-16T02:42:50.710Z,2.33
2022-08-16T02:45:19.909Z,2.13
2022-08-16T02:48:00.287Z,2.43
2022-08-16T02:50:55.187Z,2.00
2022-08-16T02:53:18.009Z,2.10
2022-08-16T02:55:45.157Z,2.30
2022-08-16T02:58:12.063Z,2.70
2022-08-16T03:00:40.726Z,1.97
2022-08-16T03:03:12.466Z,2.50
2022-08-16T03:05:49.989Z,2.50
2022-08-16T03:08:49.881Z,1.83
2022-08-16T03:11:16.712Z,2.27
2022-08-16T03:13:51.195Z,2.57
2022-08-16T03:16:37.939Z,2.30
2022-08-16T03:19:06.710Z,1.97
2022-08-16T03:21:37.800Z,2.00
2022-08-16T03:24:28.777Z,2.20
2022-08-16T03:26:58.119Z,1.80
2022-08-16T03:29:27.316Z,2.23
2022-08-16T03:31:59.188Z,2.37
2022-08-16T03:34:27.285Z,2.40
2022-08-16T03:36:55.169Z,2.77
2022-08-16T03:39:22.879Z,2.23
2022-08-16T03:41:59.316Z,1.90
2022-08-16T03:44:43.792Z,2.17
2022-08-16T03:47:19.162Z,2.17
2022-08-16T03:49:47.829Z,2.20
2022-08-16T03:52:20.162Z,2.13
2022-08-16T03:54:53.225Z,2.70
2022-08-16T03:57:20.834Z,2.40
2022-08-16T03:59:47.928Z,2.50
2022-08-16T04:02:22.006Z,2.00
2022-08-16T04:04:50.154Z,3.00
2022-08-16T04:07:17.491Z,2.73
2022-08-16T04:09:44.932Z,2.20
2022-08-16T04:12:52.378Z,2.10
2022-08-16T04:14:59.500Z,2.13
2022-08-16T04:17:26.978Z,2.50
2022-08-16T04:19:54.910Z,2.30
2022-08-16T04:22:27.516Z,2.10
2022-08-16T04:24:55.181Z,2.10
2022-08-16T04:27:22.324Z,2.50
2022-08-16T04:29:52.462Z,2.23
2022-08-16T04:32:19.977Z,2.77
2022-08-16T04:34:47.735Z,2.33
2022-08-16T04:37:16.076Z,2.30
2022-08-16T04:39:46.553Z,2.60
2022-08-16T04:42:15.904Z,2.30
2022-08-16T04:44:54.190Z,2.00
2022-08-16T04:47:33.438Z,2.70
2022-08-16T04:50:29.806Z,2.27
2022-08-16T04:52:58.148Z,2.40
2022-08-16T04:55:31.977Z,2.50
2022-08-16T04:58:43.650Z,2.60
2022-08-16T05:00:52.984Z,2.60
2022-08-16T05:03:20.713Z,2.30
2022-08-16T05:05:58.912Z,2.60
2022-08-16T05:08:30.732Z,2.37
2022-08-16T05:11:05.777Z,2.77
2022-08-16T05:13:40.334Z,2.67
2022-08-16T05:16:11.721Z,2.63
2022-08-16T05:18:43.208Z,2.97
2022-08-16T05:21:11.372Z,2.50
2022-08-16T05:23:39.512Z,2.83
2022-08-16T05:26:06.288Z,3.07
2022-08-16T05:28:46.634Z,2.20
2022-08-16T05:31:22.053Z,2.60
2022-08-16T05:33:53.572Z,2.43
2022-08-16T05:36:21.818Z,2.87
2022-08-16T05:38:48.937Z,2.73
2022-08-16T05:41:16.832Z,2.20
2022-08-16T05:43:47.001Z,3.00
2022-08-16T05:46:29.548Z,2.60
2022-08-16T05:49:03.780Z,2.30
2022-08-16T05:51:40.056Z,2.70
2022-08-16T05:54:11.151Z,2.60
2022-08-16T05:56:39.545Z,2.37
2022-08-16T05:59:07.149Z,2.37
2022-08-16T06:01:38.290Z,2.90
2022-08-16T06:04:13.030Z,2.40
2022-08-16T06:06:41.774Z,2.47
2022-08-16T06:09:14.236Z,2.40
2022-08-16T06:11:44.508Z,2.57
2022-08-16T06:14:12.014Z,2.80
2022-08-16T06:16:38.769Z,2.90
2022-08-16T06:19:05.734Z,3.07
2022-08-16T06:21:36.917Z,2.03
2022-08-16T06:24:53.641Z,2.40
2022-08-16T06:26:57.945Z,2.50
2022-08-16T06:29:25.166Z,2.30
2022-08-16T06:31:51.857Z,2.97
2022-08-16T06:34:31.563Z,3.40
2022-08-16T06:37:05.267Z,3.10
2022-08-16T06:39:34.321Z,2.50
2022-08-16T06:42:01.438Z,3.23
2022-08-16T06:44:28.507Z,2.93
2022-08-16T06:46:55.546Z,3.40
2022-08-16T06:49:22.362Z,3.40
2022-08-16T06:51:49.207Z,3.37
2022-08-16T06:54:16.698Z,3.07
2022-08-16T06:56:43.475Z,2.77
2022-08-16T06:59:12.100Z,3.20
2022-08-16T07:01:44.921Z,3.23
2022-08-16T07:04:31.601Z,2.83
2022-08-16T07:07:00.690Z,2.60
2022-08-16T07:09:29.641Z,2.97
2022-08-16T07:12:03.367Z,2.93
2022-08-16T07:14:31.650Z,2.90
2022-08-16T07:16:59.395Z,2.60
2022-08-16T07:20:01.304Z,2.93
2022-08-16T07:22:37.810Z,3.03
2022-08-16T07:25:05.682Z,2.67
2022-08-16T07:27:33.681Z,3.13
2022-08-16T07:30:38.522Z,2.93
2022-08-16T07:32:53.449Z,3.60
2022-08-16T07:35:20.036Z,2.80
2022-08-16T07:37:46.657Z,3.17
2022-08-16T07:40:13.854Z,2.90
2022-08-16T07:42:40.570Z,3.00
2022-08-16T07:45:10.389Z,2.87
2022-08-16T07:47:37.452Z,2.90
2022-08-16T07:50:07.829Z,2.90
2022-08-16T07:52:34.857Z,2.90
2022-08-16T07:55:06.657Z,3.30
2022-08-16T07:57:37.634Z,3.20
2022-08-16T08:00:18.813Z,3.33
2022-08-16T08:02:47.687Z,3.87
2022-08-16T08:05:19.104Z,3.00
2022-08-16T08:08:03.024Z,3.00
2022-08-16T08:10:38.707Z,3.20
2022-08-16T08:13:05.735Z,3.03
2022-08-16T08:15:34.567Z,3.77
2022-08-16T08:18:29.902Z,3.83
2022-08-16T08:20:59.506Z,3.60
2022-08-16T08:23:27.545Z,3.27
2022-08-16T08:25:55.889Z,4.00
2022-08-16T08:28:23.029Z,3.83
2022-08-16T08:31:01.089Z,3.27
2022-08-16T08:33:28.535Z,3.67
2022-08-16T08:36:01.425Z,3.80
2022-08-16T08:38:43.670Z,4.00
2022-08-16T08:41:11.378Z,3.60
2022-08-16T08:43:41.600Z,3.47
2022-08-16T08:46:17.922Z,3.80
2022-08-16T08:48:46.304Z,4.33
2022-08-16T08:51:27.624Z,4.13
2022-08-16T08:53:58.837Z,3.87
2022-08-16T08:56:26.022Z,4.20
2022-08-16T08:58:58.921Z,4.60
2022-08-16T09:01:36.264Z,4.73
2022-08-16T09:04:05.744Z,4.80
2022-08-16T09:06:33.791Z,4.10
2022-08-16T09:09:02.564Z,4.73
2022-08-16T09:11:34.386Z,4.73
2022-08-16T09:14:08.836Z,4.60
2022-08-16T09:17:02.356Z,4.00
2022-08-16T09:19:32.162Z,4.60
2022-08-16T09:22:00.627Z,5.20
2022-08-16T09:24:46.635Z,4.50
2022-08-16T09:27:14.582Z,5.40
2022-08-16T09:29:45.783Z,5.07
2022-08-16T09:32:28.819Z,4.87
2022-08-16T09:34:58.586Z,4.70
2022-08-16T09:37:29.677Z,5.30
2022-08-16T09:39:57.995Z,4.90
2022-08-16T09:42:28.221Z,4.70
2022-08-16T09:45:12.620Z,6.00
2022-08-16T09:47:57.400Z,6.73
2022-08-16T09:50:26.881Z,6.23
2022-08-16T09:53:07.287Z,6.93
2022-08-16T09:55:44.655Z,7.53
2022-08-16T09:58:14.882Z,7.90
2022-08-16T10:00:58.095Z,6.73
2022-08-16T10:03:27.673Z,7.20
2022-08-16T10:05:57.088Z,8.30
2022-08-16T10:08:26.896Z,7.20
2022-08-16T10:11:12.964Z,7.10
2022-08-16T10:13:41.396Z,7.57
2022-08-16T10:16:09.086Z,6.87
2022-08-16T10:19:00.427Z,6.83
2022-08-16T10:21:23.772Z,7.13
2022-08-16T10:23:53.643Z,6.70
2022-08-16T10:27:19.841Z,6.10
2022-08-16T10:29:11.470Z,6.10
2022-08-16T10:31:45.548Z,6.57
2022-08-16T10:34:31.417Z,6.10
2022-08-16T10:37:01.068Z,6.43
2022-08-16T10:39:40.573Z,6.40
2022-08-16T10:42:10.317Z,6.03
2022-08-16T10:44:40.282Z,5.93
2022-08-16T10:47:09.504Z,5.50
2022-08-16T10:49:38.955Z,5.10
2022-08-16T10:52:18.952Z,5.93
2022-08-16T10:57:32.853Z,5.30
2022-08-16T10:59:59.852Z,5.03
2022-08-16T11:02:58.566Z,5.80
2022-08-16T11:05:16.641Z,5.83
2022-08-16T11:08:05.432Z,5.27
2022-08-16T11:19:05.591Z,5.17
2022-08-16T11:22:39.444Z,4.90
2022-08-16T11:24:42.760Z,4.83
2022-08-16T11:27:20.225Z,4.93
2022-08-16T11:29:50.086Z,5.47
2022-08-16T11:32:20.268Z,4.73
2022-08-16T11:35:13.202Z,4.83
2022-08-16T11:38:05.967Z,5.10
2022-08-16T11:40:32.646Z,5.30
2022-08-16T11:43:01.579Z,5.20
2022-08-16T11:45:33.495Z,4.97
2022-08-16T11:48:02.786Z,5.13
2022-08-16T11:50:33.147Z,5.07
2022-08-16T11:53:05.311Z,5.50
2022-08-16T11:55:37.982Z,5.10
2022-08-16T11:58:06.832Z,4.77
2022-08-16T12:00:51.482Z,4.40
2022-08-16T12:03:22.721Z,4.97
2022-08-16T12:05:54.310Z,4.83
2022-08-16T12:08:22.088Z,4.20
2022-08-16T12:10:52.716Z,4.63
2022-08-16T12:15:50.807Z,4.67
2022-08-16T12:18:20.912Z,4.37
2022-08-16T12:23:20.499Z,4.67
2022-08-16T12:25:48.282Z,4.47
2022-08-16T12:28:36.675Z,4.57
2022-08-16T12:31:04.534Z,4.50
2022-08-16T12:33:32.280Z,4.87
2022-08-16T12:36:09.950Z,4.73
2022-08-16T12:38:47.903Z,4.53
2022-08-16T12:41:24.550Z,4.10
2022-08-16T12:43:52.478Z,4.07
2022-08-16T12:46:24.725Z,3.90
2022-08-16T12:49:00.562Z,4.10
2022-08-16T12:51:58.033Z,4.50
2022-08-16T12:54:24.700Z,3.87
2022-08-16T12:56:51.315Z,4.20
2022-08-16T12:59:20.839Z,4.27
2022-08-16T13:01:50.221Z,4.00
2022-08-16T13:04:20.269Z,3.93
2022-08-16T13:06:48.791Z,3.77
2022-08-16T13:09:20.747Z,4.13
2022-08-16T13:12:00.453Z,4.20
2022-08-16T13:14:53.681Z,3.90
2022-08-16T13:17:26.451Z,4.13
2022-08-16T13:20:07.862Z,4.20
2022-08-16T13:22:38.089Z,4.07
2022-08-16T13:25:08.762Z,3.30
2022-08-16T13:28:03.206Z,4.67
2022-08-16T13:30:37.120Z,4.03
2022-08-16T13:33:12.628Z,4.27
2022-08-16T13:35:43.824Z,3.83
2022-08-16T13:38:24.226Z,3.90
2022-08-16T13:40:56.649Z,3.83
2022-08-16T13:43:26.373Z,4.20
2022-08-16T13:45:55.265Z,4.10
2022-08-16T13:48:24.909Z,4.20
2022-08-16T13:50:53.788Z,4.20
2022-08-16T13:53:24.356Z,3.73
2022-08-16T13:55:58.468Z,3.50
2022-08-16T13:58:36.382Z,4.10
2022-08-16T14:01:09.940Z,3.73
2022-08-16T14:03:40.470Z,4.00
2022-08-16T14:06:10.546Z,3.87
2022-08-16T14:08:42.265Z,3.87
2022-08-16T14:11:14.450Z,3.60
2022-08-16T14:13:43.691Z,3.53
2022-08-16T14:16:23.546Z,4.13
2022-08-16T14:18:52.998Z,3.60
2022-08-16T14:21:22.142Z,3.80
2022-08-16T14:23:51.839Z,3.33
2022-08-16T14:26:20.936Z,3.47
2022-08-16T14:28:50.215Z,4.33
2022-08-16T14:31:17.709Z,4.13
2022-08-16T14:33:44.722Z,3.87
2022-08-16T14:36:11.694Z,3.60
2022-08-16T14:38:45.488Z,3.60
2022-08-16T14:41:13.526Z,4.27
2022-08-16T14:43:40.257Z,4.03
2022-08-16T14:51:10.215Z,4.17
2022-08-16T14:53:37.014Z,3.83
2022-08-16T14:56:04.769Z,3.80
2022-08-16T14:58:36.831Z,3.30
2022-08-16T15:01:06.319Z,3.50
2022-08-16T15:03:37.530Z,3.90
2022-08-16T15:06:04.855Z,3.70
2022-08-16T15:08:36.934Z,3.50
2022-08-16T15:11:05.382Z,4.27
2022-08-16T15:13:32.297Z,3.53
2022-08-16T15:16:02.538Z,3.53
2022-08-16T15:18:31.853Z,3.73
2022-08-16T15:20:59.859Z,3.50
2022-08-16T15:23:26.843Z,4.00
2022-08-16T15:26:03.449Z,4.07
2022-08-16T15:28:37.284Z,3.73
2022-08-16T15:31:08.000Z,3.80
2022-08-16T15:33:48.546Z,3.80
2022-08-16T15:36:19.136Z,3.50
2022-08-16T15:38:56.866Z,3.33
2022-08-16T15:41:42.615Z,3.30
2022-08-16T15:44:13.525Z,3.83
2022-08-16T15:46:54.782Z,3.63
2022-08-16T15:49:22.740Z,3.50
2022-08-16T15:51:51.795Z,3.70
2022-08-16T15:54:30.384Z,3.30
2022-08-16T15:57:05.929Z,3.67
2022-08-16T15:59:48.543Z,3.10
2022-08-16T16:02:19.454Z,3.70
2022-08-16T16:04:54.910Z,3.60
2022-08-16T16:07:21.965Z,3.70
2022-08-16T16:09:48.844Z,3.40
2022-08-16T16:12:50.485Z,3.90
2022-08-16T16:15:06.443Z,3.63
2022-08-16T16:17:34.248Z,3.60
2022-08-16T16:20:03.929Z,3.27
2022-08-16T16:22:31.624Z,3.60
2022-08-16T16:24:58.260Z,3.70
2022-08-16T16:27:25.211Z,3.93
2022-08-16T16:30:01.606Z,3.60
2022-08-16T16:32:34.282Z,3.33
2022-08-16T16:35:02.126Z,3.80
2022-08-16T16:37:30.916Z,3.40
2022-08-16T16:39:57.624Z,3.53
2022-08-16T16:42:29.837Z,3.37
2022-08-16T16:45:01.205Z,3.30
2022-08-16T16:47:29.482Z,3.67
2022-08-16T16:49:56.102Z,3.50
2022-08-16T16:52:43.206Z,3.63
2022-08-16T16:55:12.632Z,3.27
2022-08-16T16:57:57.927Z,3.20
2022-08-16T17:00:30.139Z,3.50
2022-08-16T17:03:06.188Z,3.63
2022-08-16T17:06:00.148Z,3.27
2022-08-16T17:08:30.803Z,3.40
2022-08-16T17:10:57.627Z,3.37
2022-08-16T17:13:24.967Z,3.40
2022-08-16T17:15:53.203Z,3.00
2022-08-16T17:19:16.282Z,3.07
2022-08-16T17:21:08.566Z,3.40
2022-08-16T17:23:58.996Z,3.50
2022-08-16T17:26:22.815Z,3.00
2022-08-16T17:29:02.308Z,3.07
2022-08-16T17:31:40.895Z,3.47
2022-08-16T17:36:54.551Z,3.63
2022-08-16T17:39:21.453Z,3.67
2022-08-16T17:41:50.996Z,3.37
2022-08-16T17:44:19.146Z,3.00
2022-08-16T17:46:51.226Z,3.30
2022-08-16T17:49:19.335Z,3.30
2022-08-16T17:51:45.975Z,3.87
2022-08-16T17:54:30.468Z,3.53
2022-08-16T17:57:01.268Z,3.47
2022-08-16T17:59:28.965Z,3.60
2022-08-16T18:04:45.259Z,3.17
2022-08-16T18:07:14.760Z,3.23
2022-08-16T18:09:42.038Z,3.20
2022-08-16T18:12:44.419Z,3.50
2022-08-16T18:15:10.320Z,3.60
2022-08-16T18:17:37.652Z,3.23
2022-08-16T18:20:07.015Z,3.13
2022-08-16T18:22:34.161Z,2.67
2022-08-16T18:25:01.087Z,3.47
2022-08-16T18:27:29.547Z,3.03
2022-08-16T18:29:56.128Z,3.37
2022-08-16T18:32:24.780Z,3.20
2022-08-16T18:34:54.281Z,3.30
2022-08-16T18:44:57.596Z,3.27
2022-08-16T18:47:24.165Z,3.40
2022-08-16T18:49:50.752Z,3.47
2022-08-16T18:52:25.538Z,4.20
2022-08-16T18:55:02.335Z,3.87
2022-08-16T18:57:39.447Z,3.80
2022-08-16T19:00:09.878Z,3.60
2022-08-16T19:02:57.230Z,3.93
2022-08-16T19:05:25.921Z,3.20
2022-08-16T19:07:52.703Z,3.90
2022-08-16T19:10:19.555Z,3.23
2022-08-16T19:12:46.179Z,3.27
2022-08-16T19:15:20.183Z,4.00
2022-08-16T19:23:10.233Z,4.13
2022-08-16T19:25:47.225Z,4.07
2022-08-16T19:28:49.073Z,3.90
2022-08-16T19:31:31.216Z,4.10
2022-08-16T19:33:58.552Z,4.07
2022-08-16T19:36:36.093Z,4.40
2022-08-16T19:39:09.540Z,3.97
2022-08-16T19:41:42.478Z,4.23
2022-08-16T19:44:09.660Z,4.50
2022-08-16T19:46:37.860Z,4.63
2022-08-16T19:49:05.226Z,4.37
2022-08-16T19:51:31.952Z,5.13
2022-08-16T19:56:30.156Z,4.90
2022-08-16T19:59:18.119Z,4.87
2022-08-16T20:01:44.255Z,5.13
2022-08-16T20:04:12.296Z,5.10
2022-08-16T20:06:39.631Z,4.77
2022-08-16T20:09:07.128Z,4.60
2022-08-16T20:11:34.950Z,4.77
2022-08-16T20:14:10.575Z,4.70
2022-08-16T20:16:37.214Z,4.60
2022-08-16T20:19:04.566Z,4.53
2022-08-16T20:21:31.529Z,4.97
2022-08-16T20:24:22.839Z,4.70
2022-08-16T20:26:45.246Z,4.87
2022-08-16T20:29:11.818Z,4.90
2022-08-16T20:31:38.448Z,4.90
2022-08-16T20:34:05.046Z,4.67
2022-08-16T20:36:31.641Z,5.63
2022-08-16T20:39:00.035Z,4.33
2022-08-16T20:41:27.251Z,4.70
2022-08-16T20:43:54.984Z,4.20
2022-08-16T20:46:22.096Z,4.50
2022-08-16T20:48:48.928Z,5.00
2022-08-16T20:53:47.683Z,4.47
2022-08-16T21:03:49.123Z,5.33
2022-08-16T21:06:15.748Z,5.10
2022-08-16T21:08:52.714Z,4.97
2022-08-16T21:11:21.482Z,4.63
2022-08-16T21:13:48.108Z,5.37
2022-08-16T21:16:16.844Z,4.40
2022-08-16T21:26:18.281Z,5.60
2022-08-16T21:28:45.360Z,5.07
2022-08-16T21:31:13.720Z,5.37
2022-08-16T21:33:40.884Z,5.60
2022-08-16T21:36:08.040Z,5.40
2022-08-16T21:38:34.651Z,5.40
2022-08-16T21:41:03.417Z,5.83
2022-08-16T21:43:33.027Z,5.33
2022-08-16T21:46:01.606Z,5.17
2022-08-16T21:48:35.030Z,6.00
2022-08-16T21:53:45.870Z,5.97
2022-08-16T21:58:45.393Z,5.00
2022-08-16T22:06:15.391Z,5.17
2022-08-16T22:08:48.043Z,5.20
2022-08-16T22:11:21.908Z,5.30
2022-08-16T22:13:51.480Z,5.43
2022-08-16T22:16:31.270Z,5.13
2022-08-16T22:18:57.956Z,5.40
2022-08-16T22:21:24.889Z,5.03
2022-08-16T22:26:29.150Z,5.50
2022-08-16T22:28:57.727Z,4.90
2022-08-16T22:31:25.260Z,5.03
2022-08-16T22:36:23.759Z,5.40
2022-08-16T22:38:59.507Z,4.67
2022-08-16T22:41:28.485Z,5.37
2022-08-16T22:43:55.198Z,4.80
2022-08-16T22:46:21.834Z,5.43
2022-08-16T22:48:51.402Z,5.73
2022-08-16T22:51:19.647Z,5.33
2022-08-16T22:53:46.319Z,5.80
2022-08-16T22:56:13.162Z,5.87
2022-08-16T22:58:39.783Z,5.17
2022-08-16T23:01:08.329Z,5.97
2022-08-16T23:03:36.332Z,5.63
2022-08-16T23:06:04.420Z,5.47
2022-08-16T23:08:39.405Z,4.90
2022-08-16T23:11:10.010Z,6.07
2022-08-16T23:16:11.254Z,5.57
2022-08-16T23:18:39.131Z,5.93
2022-08-16T23:21:09.039Z,6.07
2022-08-16T23:23:36.575Z,6.83
2022-08-16T23:26:46.030Z,6.03
2022-08-16T23:28:51.020Z,6.33
2022-08-16T23:31:17.973Z,6.50
2022-08-16T23:33:45.816Z,6.27
2022-08-16T23:36:12.873Z,5.40
2022-08-16T23:38:48.554Z,5.60
2022-08-16T23:41:15.592Z,5.70
2022-08-16T23:43:43.844Z,6.07
2022-08-16T23:46:16.782Z,5.90
2022-08-16T23:49:58.303Z,6.03
2022-08-16T23:51:31.165Z,5.73
2022-08-16T23:53:57.804Z,6.37
2022-08-16T23:56:25.534Z,6.00
2022-08-16T23:58:54.539Z,6.20
